sensor_id;sensor_type;location;lat;lon;timestamp;P1;durP1;ratioP1;P2;durP2;ratioP2
53062;SDS011;40529;52.172;10.548;2023-02-28T00:00:26;7.65;;;4.70;;
53062;SDS011;40529;52.172;10.548;2023-02-28T00:02:52;6.13;;;4.70;;
53062;SDS011;40529;52.172;10.548;2023-02-28T00:05:19;8.73;;;4.97;;
53062;SDS011;40529;52.172;10.548;2023-02-28T00:07:45;8.55;;;4.50;;
53062;SDS011;40529;52.172;10.548;2023-02-28T00:10:13;6.28;;;4.03;;
53062;SDS011;40529;52.172;10.548;2023-02-28T00:12:39;7.50;;;4.40;;
53062;SDS011;40529;52.172;10.548;2023-02-28T00:15:06;6.90;;;3.85;;
53062;SDS011;40529;52.172;10.548;2023-02-28T00:17:32;6.65;;;4.45;;
53062;SDS011;40529;52.172;10.548;2023-02-28T00:19:58;5.95;;;4.32;;
53062;SDS011;40529;52.172;10.548;2023-02-28T00:22:27;4.17;;;3.33;;
53062;SDS011;40529;52.172;10.548;2023-02-28T00:24:53;7.10;;;4.22;;
53062;SDS011;40529;52.172;10.548;2023-02-28T00:27:19;7.35;;;4.10;;
53062;SDS011;40529;52.172;10.548;2023-02-28T00:29:46;6.32;;;4.05;;
53062;SDS011;40529;52.172;10.548;2023-02-28T00:32:12;6.07;;;4.10;;
53062;SDS011;40529;52.172;10.548;2023-02-28T00:34:38;6.38;;;4.25;;
53062;SDS011;40529;52.172;10.548;2023-02-28T00:37:05;7.07;;;4.60;;
53062;SDS011;40529;52.172;10.548;2023-02-28T00:39:33;5.60;;;4.05;;
53062;SDS011;40529;52.172;10.548;2023-02-28T00:41:59;6.05;;;4.15;;
53062;SDS011;40529;52.172;10.548;2023-02-28T00:44:25;6.18;;;4.43;;
53062;SDS011;40529;52.172;10.548;2023-02-28T00:46:51;6.80;;;4.10;;
53062;SDS011;40529;52.172;10.548;2023-02-28T00:49:19;8.30;;;4.85;;
53062;SDS011;40529;52.172;10.548;2023-02-28T00:51:45;7.82;;;4.78;;
53062;SDS011;40529;52.172;10.548;2023-02-28T00:54:11;6.63;;;4.50;;
53062;SDS011;40529;52.172;10.548;2023-02-28T00:56:37;8.30;;;5.03;;
53062;SDS011;40529;52.172;10.548;2023-02-28T00:59:04;8.60;;;4.30;;
53062;SDS011;40529;52.172;10.548;2023-02-28T01:01:30;6.47;;;4.72;;
53062;SDS011;40529;52.172;10.548;2023-02-28T01:03:56;8.75;;;5.00;;
53062;SDS011;40529;52.172;10.548;2023-02-28T01:06:22;9.32;;;5.65;;
53062;SDS011;40529;52.172;10.548;2023-02-28T01:08:48;7.25;;;4.68;;
53062;SDS011;40529;52.172;10.548;2023-02-28T01:11:15;7.53;;;5.25;;
53062;SDS011;40529;52.172;10.548;2023-02-28T01:13:41;6.88;;;5.32;;
53062;SDS011;40529;52.172;10.548;2023-02-28T01:16:08;6.25;;;4.55;;
53062;SDS011;40529;52.172;10.548;2023-02-28T01:18:34;7.63;;;5.13;;
53062;SDS011;40529;52.172;10.548;2023-02-28T01:21:04;6.20;;;4.53;;
53062;SDS011;40529;52.172;10.548;2023-02-28T01:23:30;9.00;;;4.93;;
53062;SDS011;40529;52.172;10.548;2023-02-28T01:25:57;8.05;;;5.05;;
53062;SDS011;40529;52.172;10.548;2023-02-28T01:28:23;7.35;;;4.80;;
53062;SDS011;40529;52.172;10.548;2023-02-28T01:30:49;8.82;;;4.78;;
53062;SDS011;40529;52.172;10.548;2023-02-28T01:33:15;7.55;;;5.32;;
53062;SDS011;40529;52.172;10.548;2023-02-28T01:35:41;12.18;;;6.90;;
53062;SDS011;40529;52.172;10.548;2023-02-28T01:38:07;11.23;;;6.05;;
53062;SDS011;40529;52.172;10.548;2023-02-28T01:40:33;8.00;;;5.97;;
53062;SDS011;40529;52.172;10.548;2023-02-28T01:42:59;10.77;;;5.63;;
53062;SDS011;40529;52.172;10.548;2023-02-28T01:45:29;8.73;;;5.20;;
53062;SDS011;40529;52.172;10.548;2023-02-28T01:47:58;8.35;;;5.90;;
53062;SDS011;40529;52.172;10.548;2023-02-28T01:50:27;8.90;;;5.80;;
53062;SDS011;40529;52.172;10.548;2023-02-28T01:52:54;7.72;;;5.10;;
53062;SDS011;40529;52.172;10.548;2023-02-28T01:55:21;13.10;;;5.90;;
53062;SDS011;40529;52.172;10.548;2023-02-28T01:57:49;11.10;;;5.65;;
53062;SDS011;40529;52.172;10.548;2023-02-28T02:00:17;10.10;;;5.13;;
53062;SDS011;40529;52.172;10.548;2023-02-28T02:02:45;7.35;;;4.28;;
53062;SDS011;40529;52.172;10.548;2023-02-28T02:05:13;7.85;;;5.28;;
53062;SDS011;40529;52.172;10.548;2023-02-28T02:07:41;7.88;;;4.95;;
53062;SDS011;40529;52.172;10.548;2023-02-28T02:10:19;6.93;;;4.72;;
53062;SDS011;40529;52.172;10.548;2023-02-28T02:15:26;10.40;;;5.38;;
53062;SDS011;40529;52.172;10.548;2023-02-28T02:17:56;8.10;;;5.47;;
53062;SDS011;40529;52.172;10.548;2023-02-28T02:23:32;7.68;;;5.32;;
53062;SDS011;40529;52.172;10.548;2023-02-28T02:25:53;8.80;;;4.88;;
53062;SDS011;40529;52.172;10.548;2023-02-28T02:33:27;9.15;;;5.75;;
53062;SDS011;40529;52.172;10.548;2023-02-28T02:36:13;11.05;;;5.20;;
53062;SDS011;40529;52.172;10.548;2023-02-28T02:38:46;10.13;;;5.63;;
53062;SDS011;40529;52.172;10.548;2023-02-28T02:41:15;8.43;;;5.47;;
53062;SDS011;40529;52.172;10.548;2023-02-28T02:43:51;8.65;;;5.93;;
53062;SDS011;40529;52.172;10.548;2023-02-28T02:48:57;9.38;;;5.70;;
53062;SDS011;40529;52.172;10.548;2023-02-28T02:51:25;8.80;;;5.18;;
53062;SDS011;40529;52.172;10.548;2023-02-28T02:54:25;8.75;;;4.95;;
53062;SDS011;40529;52.172;10.548;2023-02-28T02:56:44;8.82;;;5.60;;
53062;SDS011;40529;52.172;10.548;2023-02-28T02:59:12;9.25;;;5.03;;
53062;SDS011;40529;52.172;10.548;2023-02-28T03:01:39;8.63;;;5.55;;
53062;SDS011;40529;52.172;10.548;2023-02-28T03:04:07;10.50;;;5.20;;
53062;SDS011;40529;52.172;10.548;2023-02-28T03:06:34;8.88;;;6.13;;
53062;SDS011;40529;52.172;10.548;2023-02-28T03:09:00;9.45;;;5.72;;
53062;SDS011;40529;52.172;10.548;2023-02-28T03:11:26;11.35;;;7.03;;
53062;SDS011;40529;52.172;10.548;2023-02-28T03:14:03;12.98;;;7.38;;
53062;SDS011;40529;52.172;10.548;2023-02-28T03:26:54;12.43;;;7.03;;
53062;SDS011;40529;52.172;10.548;2023-02-28T03:31:48;10.93;;;6.47;;
53062;SDS011;40529;52.172;10.548;2023-02-28T03:34:17;8.73;;;6.22;;
53062;SDS011;40529;52.172;10.548;2023-02-28T03:36:47;8.43;;;6.18;;
53062;SDS011;40529;52.172;10.548;2023-02-28T03:39:14;8.88;;;6.28;;
53062;SDS011;40529;52.172;10.548;2023-02-28T03:41:42;9.18;;;6.38;;
53062;SDS011;40529;52.172;10.548;2023-02-28T03:44:14;9.63;;;6.28;;
53062;SDS011;40529;52.172;10.548;2023-02-28T03:46:44;7.45;;;5.68;;
53062;SDS011;40529;52.172;10.548;2023-02-28T03:49:15;10.98;;;6.88;;
53062;SDS011;40529;52.172;10.548;2023-02-28T03:51:41;9.20;;;5.78;;
53062;SDS011;40529;52.172;10.548;2023-02-28T03:54:12;9.40;;;6.57;;
53062;SDS011;40529;52.172;10.548;2023-02-28T03:57:03;8.85;;;6.35;;
53062;SDS011;40529;52.172;10.548;2023-02-28T03:59:32;9.55;;;6.30;;
53062;SDS011;40529;52.172;10.548;2023-02-28T04:02:00;9.25;;;6.18;;
53062;SDS011;40529;52.172;10.548;2023-02-28T04:04:26;10.23;;;6.63;;
53062;SDS011;40529;52.172;10.548;2023-02-28T04:06:52;9.70;;;5.95;;
53062;SDS011;40529;52.172;10.548;2023-02-28T04:09:19;9.98;;;6.20;;
53062;SDS011;40529;52.172;10.548;2023-02-28T04:11:46;9.35;;;6.50;;
53062;SDS011;40529;52.172;10.548;2023-02-28T04:14:14;5.93;;;4.63;;
53062;SDS011;40529;52.172;10.548;2023-02-28T04:16:41;8.70;;;6.13;;
53062;SDS011;40529;52.172;10.548;2023-02-28T04:19:07;13.32;;;6.60;;
53062;SDS011;40529;52.172;10.548;2023-02-28T04:21:44;9.60;;;6.50;;
53062;SDS011;40529;52.172;10.548;2023-02-28T04:24:12;10.90;;;7.43;;
53062;SDS011;40529;52.172;10.548;2023-02-28T04:26:40;11.07;;;7.10;;
53062;SDS011;40529;52.172;10.548;2023-02-28T04:29:08;12.50;;;7.38;;
53062;SDS011;40529;52.172;10.548;2023-02-28T04:31:34;9.90;;;6.55;;
53062;SDS011;40529;52.172;10.548;2023-02-28T04:34:00;9.85;;;6.53;;
53062;SDS011;40529;52.172;10.548;2023-02-28T04:36:26;9.95;;;6.43;;
53062;SDS011;40529;52.172;10.548;2023-02-28T04:38:52;9.30;;;6.57;;
53062;SDS011;40529;52.172;10.548;2023-02-28T04:41:19;10.50;;;6.10;;
53062;SDS011;40529;52.172;10.548;2023-02-28T04:43:45;8.38;;;5.40;;
53062;SDS011;40529;52.172;10.548;2023-02-28T04:46:11;6.68;;;4.43;;
53062;SDS011;40529;52.172;10.548;2023-02-28T04:48:38;4.53;;;3.60;;
53062;SDS011;40529;52.172;10.548;2023-02-28T04:51:05;4.88;;;3.15;;
53062;SDS011;40529;52.172;10.548;2023-02-28T04:53:31;4.90;;;3.10;;
53062;SDS011;40529;52.172;10.548;2023-02-28T04:55:58;4.50;;;3.17;;
53062;SDS011;40529;52.172;10.548;2023-02-28T04:58:24;4.20;;;3.22;;
53062;SDS011;40529;52.172;10.548;2023-02-28T05:00:50;5.68;;;3.00;;
53062;SDS011;40529;52.172;10.548;2023-02-28T05:03:17;3.63;;;2.67;;
53062;SDS011;40529;52.172;10.548;2023-02-28T05:05:43;4.28;;;3.15;;
53062;SDS011;40529;52.172;10.548;2023-02-28T05:08:09;5.47;;;2.80;;
53062;SDS011;40529;52.172;10.548;2023-02-28T05:10:36;3.92;;;2.92;;
53062;SDS011;40529;52.172;10.548;2023-02-28T05:13:02;4.72;;;2.70;;
53062;SDS011;40529;52.172;10.548;2023-02-28T05:15:28;5.80;;;3.03;;
53062;SDS011;40529;52.172;10.548;2023-02-28T05:17:54;6.05;;;3.03;;
53062;SDS011;40529;52.172;10.548;2023-02-28T05:20:20;2.78;;;2.47;;
53062;SDS011;40529;52.172;10.548;2023-02-28T05:22:46;2.80;;;2.60;;
53062;SDS011;40529;52.172;10.548;2023-02-28T05:25:13;4.20;;;2.92;;
53062;SDS011;40529;52.172;10.548;2023-02-28T05:27:41;3.75;;;3.10;;
53062;SDS011;40529;52.172;10.548;2023-02-28T05:30:07;5.28;;;2.63;;
53062;SDS011;40529;52.172;10.548;2023-02-28T05:32:36;4.38;;;2.70;;
53062;SDS011;40529;52.172;10.548;2023-02-28T05:35:02;6.05;;;3.20;;
53062;SDS011;40529;52.172;10.548;2023-02-28T05:37:28;3.67;;;2.85;;
53062;SDS011;40529;52.172;10.548;2023-02-28T05:39:54;4.95;;;3.05;;
53062;SDS011;40529;52.172;10.548;2023-02-28T05:42:20;6.32;;;3.50;;
53062;SDS011;40529;52.172;10.548;2023-02-28T05:44:46;4.38;;;3.00;;
53062;SDS011;40529;52.172;10.548;2023-02-28T05:47:12;5.28;;;3.80;;
53062;SDS011;40529;52.172;10.548;2023-02-28T05:49:40;3.70;;;3.08;;
53062;SDS011;40529;52.172;10.548;2023-02-28T05:52:06;7.88;;;3.67;;
53062;SDS011;40529;52.172;10.548;2023-02-28T05:54:32;4.85;;;3.33;;
53062;SDS011;40529;52.172;10.548;2023-02-28T05:56:58;7.18;;;3.38;;
53062;SDS011;40529;52.172;10.548;2023-02-28T05:59:24;4.95;;;3.92;;
53062;SDS011;40529;52.172;10.548;2023-02-28T06:01:50;5.45;;;3.25;;
53062;SDS011;40529;52.172;10.548;2023-02-28T06:04:18;7.13;;;3.63;;
53062;SDS011;40529;52.172;10.548;2023-02-28T06:06:45;5.57;;;3.72;;
53062;SDS011;40529;52.172;10.548;2023-02-28T06:09:11;5.07;;;3.50;;
53062;SDS011;40529;52.172;10.548;2023-02-28T06:11:38;6.60;;;4.03;;
53062;SDS011;40529;52.172;10.548;2023-02-28T06:14:04;6.47;;;4.10;;
53062;SDS011;40529;52.172;10.548;2023-02-28T06:16:31;5.53;;;3.83;;
53062;SDS011;40529;52.172;10.548;2023-02-28T06:18:58;6.75;;;4.13;;
53062;SDS011;40529;52.172;10.548;2023-02-28T06:21:24;5.88;;;4.10;;
53062;SDS011;40529;52.172;10.548;2023-02-28T06:23:52;5.13;;;3.65;;
53062;SDS011;40529;52.172;10.548;2023-02-28T06:26:18;5.60;;;4.32;;
53062;SDS011;40529;52.172;10.548;2023-02-28T06:28:44;8.10;;;4.30;;
53062;SDS011;40529;52.172;10.548;2023-02-28T06:31:11;5.38;;;4.40;;
53062;SDS011;40529;52.172;10.548;2023-02-28T06:33:38;6.85;;;4.28;;
53062;SDS011;40529;52.172;10.548;2023-02-28T06:36:05;6.88;;;4.45;;
53062;SDS011;40529;52.172;10.548;2023-02-28T06:38:31;8.20;;;4.30;;
53062;SDS011;40529;52.172;10.548;2023-02-28T06:40:58;8.13;;;4.05;;
53062;SDS011;40529;52.172;10.548;2023-02-28T06:43:25;5.65;;;3.95;;
53062;SDS011;40529;52.172;10.548;2023-02-28T06:45:53;5.53;;;3.70;;
53062;SDS011;40529;52.172;10.548;2023-02-28T06:48:20;7.85;;;4.22;;
53062;SDS011;40529;52.172;10.548;2023-02-28T06:50:46;6.30;;;3.80;;
53062;SDS011;40529;52.172;10.548;2023-02-28T06:53:12;7.53;;;3.65;;
53062;SDS011;40529;52.172;10.548;2023-02-28T06:55:39;6.82;;;3.72;;
53062;SDS011;40529;52.172;10.548;2023-02-28T06:58:05;5.07;;;3.58;;
53062;SDS011;40529;52.172;10.548;2023-02-28T07:00:41;4.93;;;3.20;;
53062;SDS011;40529;52.172;10.548;2023-02-28T07:03:08;5.85;;;3.08;;
53062;SDS011;40529;52.172;10.548;2023-02-28T07:05:35;4.63;;;3.10;;
53062;SDS011;40529;52.172;10.548;2023-02-28T07:08:01;4.43;;;2.70;;
53062;SDS011;40529;52.172;10.548;2023-02-28T07:10:28;3.75;;;2.75;;
53062;SDS011;40529;52.172;10.548;2023-02-28T07:12:54;4.47;;;2.60;;
53062;SDS011;40529;52.172;10.548;2023-02-28T07:15:20;3.88;;;2.88;;
53062;SDS011;40529;52.172;10.548;2023-02-28T07:17:46;3.40;;;2.50;;
53062;SDS011;40529;52.172;10.548;2023-02-28T07:20:12;3.30;;;2.38;;
53062;SDS011;40529;52.172;10.548;2023-02-28T07:22:38;2.85;;;2.08;;
53062;SDS011;40529;52.172;10.548;2023-02-28T07:25:04;3.20;;;2.35;;
53062;SDS011;40529;52.172;10.548;2023-02-28T07:27:31;3.15;;;2.22;;
53062;SDS011;40529;52.172;10.548;2023-02-28T07:29:57;2.60;;;1.90;;
53062;SDS011;40529;52.172;10.548;2023-02-28T07:32:26;2.65;;;2.03;;
53062;SDS011;40529;52.172;10.548;2023-02-28T07:34:52;2.22;;;2.03;;
53062;SDS011;40529;52.172;10.548;2023-02-28T07:37:18;3.35;;;2.15;;
53062;SDS011;40529;52.172;10.548;2023-02-28T07:39:45;2.75;;;2.20;;
53062;SDS011;40529;52.172;10.548;2023-02-28T07:42:11;5.47;;;2.00;;
53062;SDS011;40529;52.172;10.548;2023-02-28T07:44:40;2.72;;;2.10;;
53062;SDS011;40529;52.172;10.548;2023-02-28T07:47:10;4.57;;;2.30;;
53062;SDS011;40529;52.172;10.548;2023-02-28T07:49:36;3.13;;;1.85;;
53062;SDS011;40529;52.172;10.548;2023-02-28T07:52:03;5.90;;;2.20;;
53062;SDS011;40529;52.172;10.548;2023-02-28T07:54:29;4.65;;;2.55;;
53062;SDS011;40529;52.172;10.548;2023-02-28T07:56:55;2.55;;;2.10;;
53062;SDS011;40529;52.172;10.548;2023-02-28T07:59:21;3.78;;;2.53;;
53062;SDS011;40529;52.172;10.548;2023-02-28T08:01:47;4.55;;;2.72;;
53062;SDS011;40529;52.172;10.548;2023-02-28T08:04:15;4.15;;;2.88;;
53062;SDS011;40529;52.172;10.548;2023-02-28T08:06:41;4.10;;;2.40;;
53062;SDS011;40529;52.172;10.548;2023-02-28T08:09:07;2.78;;;2.10;;
53062;SDS011;40529;52.172;10.548;2023-02-28T08:11:33;2.78;;;1.95;;
53062;SDS011;40529;52.172;10.548;2023-02-28T08:13:59;2.45;;;2.00;;
53062;SDS011;40529;52.172;10.548;2023-02-28T08:16:25;6.15;;;2.10;;
53062;SDS011;40529;52.172;10.548;2023-02-28T08:18:52;3.40;;;1.80;;
53062;SDS011;40529;52.172;10.548;2023-02-28T08:21:18;3.03;;;1.88;;
53062;SDS011;40529;52.172;10.548;2023-02-28T08:23:48;4.88;;;2.10;;
53062;SDS011;40529;52.172;10.548;2023-02-28T08:26:15;1.98;;;1.50;;
53062;SDS011;40529;52.172;10.548;2023-02-28T08:28:41;3.80;;;2.00;;
53062;SDS011;40529;52.172;10.548;2023-02-28T08:31:08;4.00;;;2.03;;
53062;SDS011;40529;52.172;10.548;2023-02-28T08:33:34;2.95;;;1.95;;
53062;SDS011;40529;52.172;10.548;2023-02-28T08:36:01;4.57;;;3.13;;
53062;SDS011;40529;52.172;10.548;2023-02-28T08:38:26;4.82;;;2.10;;
53062;SDS011;40529;52.172;10.548;2023-02-28T08:41:00;4.07;;;2.25;;
53062;SDS011;40529;52.172;10.548;2023-02-28T08:43:26;2.97;;;2.08;;
53062;SDS011;40529;52.172;10.548;2023-02-28T08:45:52;3.70;;;2.30;;
53062;SDS011;40529;52.172;10.548;2023-02-28T08:48:18;3.65;;;2.08;;
53062;SDS011;40529;52.172;10.548;2023-02-28T08:50:53;3.55;;;2.20;;
53062;SDS011;40529;52.172;10.548;2023-02-28T08:53:19;3.47;;;2.58;;
53062;SDS011;40529;52.172;10.548;2023-02-28T08:55:45;3.42;;;2.28;;
53062;SDS011;40529;52.172;10.548;2023-02-28T08:58:11;3.40;;;2.47;;
53062;SDS011;40529;52.172;10.548;2023-02-28T09:00:37;3.65;;;2.50;;
53062;SDS011;40529;52.172;10.548;2023-02-28T09:03:03;4.32;;;2.58;;
53062;SDS011;40529;52.172;10.548;2023-02-28T09:05:29;4.60;;;3.03;;
53062;SDS011;40529;52.172;10.548;2023-02-28T09:07:55;3.92;;;2.65;;
53062;SDS011;40529;52.172;10.548;2023-02-28T09:10:21;4.65;;;2.70;;
53062;SDS011;40529;52.172;10.548;2023-02-28T09:12:47;6.10;;;3.00;;
53062;SDS011;40529;52.172;10.548;2023-02-28T09:15:14;5.22;;;2.90;;
53062;SDS011;40529;52.172;10.548;2023-02-28T09:17:39;4.25;;;2.92;;
53062;SDS011;40529;52.172;10.548;2023-02-28T09:20:06;3.42;;;2.28;;
53062;SDS011;40529;52.172;10.548;2023-02-28T09:22:32;5.18;;;2.30;;
53062;SDS011;40529;52.172;10.548;2023-02-28T09:24:58;4.97;;;2.35;;
53062;SDS011;40529;52.172;10.548;2023-02-28T09:27:24;3.88;;;2.10;;
53062;SDS011;40529;52.172;10.548;2023-02-28T09:29:50;3.80;;;2.17;;
53062;SDS011;40529;52.172;10.548;2023-02-28T09:32:16;4.97;;;2.72;;
53062;SDS011;40529;52.172;10.548;2023-02-28T09:34:43;3.88;;;2.38;;
53062;SDS011;40529;52.172;10.548;2023-02-28T09:37:09;6.00;;;2.42;;
53062;SDS011;40529;52.172;10.548;2023-02-28T09:39:35;4.60;;;2.53;;
53062;SDS011;40529;52.172;10.548;2023-02-28T09:42:01;4.88;;;2.40;;
53062;SDS011;40529;52.172;10.548;2023-02-28T09:46:55;2.97;;;2.10;;
53062;SDS011;40529;52.172;10.548;2023-02-28T09:49:25;4.50;;;2.72;;
53062;SDS011;40529;52.172;10.548;2023-02-28T09:54:21;3.25;;;2.25;;
53062;SDS011;40529;52.172;10.548;2023-02-28T09:57:13;6.25;;;2.42;;
53062;SDS011;40529;52.172;10.548;2023-02-28T10:04:57;4.43;;;2.50;;
53062;SDS011;40529;52.172;10.548;2023-02-28T10:07:30;4.05;;;2.70;;
53062;SDS011;40529;52.172;10.548;2023-02-28T10:10:00;4.80;;;2.50;;
53062;SDS011;40529;52.172;10.548;2023-02-28T10:12:27;3.38;;;2.50;;
53062;SDS011;40529;52.172;10.548;2023-02-28T10:14:55;3.65;;;2.42;;
53062;SDS011;40529;52.172;10.548;2023-02-28T10:17:27;4.90;;;2.65;;
53062;SDS011;40529;52.172;10.548;2023-02-28T10:25:04;2.20;;;2.00;;
53062;SDS011;40529;52.172;10.548;2023-02-28T10:27:33;3.70;;;2.25;;
53062;SDS011;40529;52.172;10.548;2023-02-28T10:30:00;4.20;;;1.98;;
53062;SDS011;40529;52.172;10.548;2023-02-28T10:32:33;5.40;;;2.78;;
53062;SDS011;40529;52.172;10.548;2023-02-28T10:35:06;3.22;;;2.40;;
53062;SDS011;40529;52.172;10.548;2023-02-28T10:37:33;4.57;;;2.75;;
53062;SDS011;40529;52.172;10.548;2023-02-28T10:40:03;4.25;;;2.70;;
53062;SDS011;40529;52.172;10.548;2023-02-28T10:42:31;3.55;;;2.22;;
53062;SDS011;40529;52.172;10.548;2023-02-28T10:47:33;4.53;;;2.50;;
53062;SDS011;40529;52.172;10.548;2023-02-28T10:50:01;5.45;;;2.42;;
53062;SDS011;40529;52.172;10.548;2023-02-28T10:52:39;5.20;;;2.55;;
53062;SDS011;40529;52.172;10.548;2023-02-28T10:55:23;3.05;;;2.25;;
53062;SDS011;40529;52.172;10.548;2023-02-28T10:57:50;4.80;;;2.47;;
53062;SDS011;40529;52.172;10.548;2023-02-28T11:02:43;5.10;;;2.42;;
53062;SDS011;40529;52.172;10.548;2023-02-28T11:05:24;2.80;;;2.25;;
53062;SDS011;40529;52.172;10.548;2023-02-28T11:07:51;5.15;;;2.20;;
53062;SDS011;40529;52.172;10.548;2023-02-28T11:10:19;4.75;;;2.40;;
53062;SDS011;40529;52.172;10.548;2023-02-28T11:12:46;2.92;;;2.25;;
53062;SDS011;40529;52.172;10.548;2023-02-28T11:17:44;3.33;;;2.20;;
53062;SDS011;40529;52.172;10.548;2023-02-28T11:20:22;4.22;;;2.40;;
53062;SDS011;40529;52.172;10.548;2023-02-28T11:22:49;4.07;;;2.40;;
53062;SDS011;40529;52.172;10.548;2023-02-28T11:25:23;4.82;;;2.60;;
53062;SDS011;40529;52.172;10.548;2023-02-28T11:27:50;3.83;;;2.72;;
53062;SDS011;40529;52.172;10.548;2023-02-28T11:30:24;3.70;;;2.20;;
53062;SDS011;40529;52.172;10.548;2023-02-28T11:32:51;3.50;;;2.00;;
53062;SDS011;40529;52.172;10.548;2023-02-28T11:35:18;5.03;;;2.08;;
53062;SDS011;40529;52.172;10.548;2023-02-28T11:37:47;3.22;;;2.17;;
53062;SDS011;40529;52.172;10.548;2023-02-28T11:40:18;2.95;;;2.10;;
53062;SDS011;40529;52.172;10.548;2023-02-28T11:45:39;3.28;;;2.50;;
53062;SDS011;40529;52.172;10.548;2023-02-28T11:54:00;4.80;;;2.50;;
53062;SDS011;40529;52.172;10.548;2023-02-28T11:56:05;4.00;;;2.33;;
53062;SDS011;40529;52.172;10.548;2023-02-28T12:04:08;3.65;;;2.25;;
53062;SDS011;40529;52.172;10.548;2023-02-28T12:12:14;4.18;;;2.65;;
53062;SDS011;40529;52.172;10.548;2023-02-28T12:17:13;4.57;;;2.50;;
53062;SDS011;40529;52.172;10.548;2023-02-28T12:27:44;4.25;;;2.30;;
53062;SDS011;40529;52.172;10.548;2023-02-28T12:32:41;4.15;;;2.40;;
53062;SDS011;40529;52.172;10.548;2023-02-28T12:37:39;2.67;;;2.20;;
53062;SDS011;40529;52.172;10.548;2023-02-28T12:40:12;3.20;;;2.47;;
53062;SDS011;40529;52.172;10.548;2023-02-28T12:42:39;3.55;;;2.42;;
53062;SDS011;40529;52.172;10.548;2023-02-28T12:45:15;3.60;;;2.72;;
53062;SDS011;40529;52.172;10.548;2023-02-28T12:47:44;3.42;;;2.90;;
53062;SDS011;40529;52.172;10.548;2023-02-28T12:50:11;4.55;;;2.67;;
53062;SDS011;40529;52.172;10.548;2023-02-28T12:52:48;2.95;;;2.35;;
53062;SDS011;40529;52.172;10.548;2023-02-28T13:02:43;3.58;;;2.85;;
53062;SDS011;40529;52.172;10.548;2023-02-28T13:08:17;4.95;;;2.47;;
53062;SDS011;40529;52.172;10.548;2023-02-28T13:10:47;3.67;;;2.60;;
53062;SDS011;40529;52.172;10.548;2023-02-28T13:13:28;2.50;;;2.30;;
53062;SDS011;40529;52.172;10.548;2023-02-28T13:16:05;3.13;;;2.38;;
53062;SDS011;40529;52.172;10.548;2023-02-28T13:20:57;5.00;;;2.60;;
53062;SDS011;40529;52.172;10.548;2023-02-28T13:23:58;4.13;;;2.90;;
53062;SDS011;40529;52.172;10.548;2023-02-28T13:26:20;3.97;;;2.65;;
53062;SDS011;40529;52.172;10.548;2023-02-28T13:28:57;4.10;;;2.63;;
53062;SDS011;40529;52.172;10.548;2023-02-28T13:31:23;4.20;;;2.40;;
53062;SDS011;40529;52.172;10.548;2023-02-28T13:36:25;4.47;;;2.70;;
53062;SDS011;40529;52.172;10.548;2023-02-28T13:38:54;3.70;;;2.58;;
53062;SDS011;40529;52.172;10.548;2023-02-28T13:44:10;2.50;;;2.10;;
53062;SDS011;40529;52.172;10.548;2023-02-28T13:59:46;4.93;;;3.10;;
53062;SDS011;40529;52.172;10.548;2023-02-28T14:04:54;4.75;;;3.20;;
53062;SDS011;40529;52.172;10.548;2023-02-28T14:07:28;3.95;;;2.63;;
53062;SDS011;40529;52.172;10.548;2023-02-28T14:09:57;3.40;;;2.90;;
53062;SDS011;40529;52.172;10.548;2023-02-28T14:18:00;5.22;;;3.10;;
53062;SDS011;40529;52.172;10.548;2023-02-28T14:20:29;5.03;;;3.42;;
53062;SDS011;40529;52.172;10.548;2023-02-28T14:23:02;5.93;;;3.20;;
53062;SDS011;40529;52.172;10.548;2023-02-28T14:25:35;5.10;;;3.20;;
53062;SDS011;40529;52.172;10.548;2023-02-28T14:28:42;4.45;;;3.33;;
53062;SDS011;40529;52.172;10.548;2023-02-28T14:38:51;4.32;;;2.83;;
53062;SDS011;40529;52.172;10.548;2023-02-28T14:41:22;3.75;;;2.92;;
53062;SDS011;40529;52.172;10.548;2023-02-28T14:43:49;6.50;;;3.25;;
53062;SDS011;40529;52.172;10.548;2023-02-28T14:46:15;4.65;;;3.13;;
53062;SDS011;40529;52.172;10.548;2023-02-28T14:48:45;5.68;;;3.63;;
53062;SDS011;40529;52.172;10.548;2023-02-28T14:51:11;3.88;;;2.90;;
53062;SDS011;40529;52.172;10.548;2023-02-28T14:53:37;4.97;;;3.42;;
53062;SDS011;40529;52.172;10.548;2023-02-28T14:56:04;4.68;;;3.28;;
53062;SDS011;40529;52.172;10.548;2023-02-28T14:58:31;5.75;;;2.78;;
53062;SDS011;40529;52.172;10.548;2023-02-28T15:00:59;4.90;;;3.08;;
53062;SDS011;40529;52.172;10.548;2023-02-28T15:03:33;4.85;;;3.20;;
53062;SDS011;40529;52.172;10.548;2023-02-28T15:06:00;3.53;;;2.90;;
53062;SDS011;40529;52.172;10.548;2023-02-28T15:08:27;5.22;;;3.45;;
53062;SDS011;40529;52.172;10.548;2023-02-28T15:10:55;3.80;;;2.90;;
53062;SDS011;40529;52.172;10.548;2023-02-28T15:13:22;6.72;;;3.25;;
53062;SDS011;40529;52.172;10.548;2023-02-28T15:18:27;6.38;;;3.10;;
53062;SDS011;40529;52.172;10.548;2023-02-28T15:20:56;6.13;;;2.80;;
53062;SDS011;40529;52.172;10.548;2023-02-28T15:23:23;5.07;;;2.83;;
53062;SDS011;40529;52.172;10.548;2023-02-28T15:25:49;6.50;;;3.65;;
53062;SDS011;40529;52.172;10.548;2023-02-28T15:28:18;4.05;;;2.88;;
53062;SDS011;40529;52.172;10.548;2023-02-28T15:30:51;4.43;;;2.90;;
53062;SDS011;40529;52.172;10.548;2023-02-28T15:33:22;4.45;;;2.65;;
53062;SDS011;40529;52.172;10.548;2023-02-28T15:35:49;7.47;;;4.53;;
53062;SDS011;40529;52.172;10.548;2023-02-28T15:40:55;5.40;;;3.08;;
53062;SDS011;40529;52.172;10.548;2023-02-28T15:48:28;3.70;;;2.50;;
53062;SDS011;40529;52.172;10.548;2023-02-28T15:50:56;4.25;;;2.72;;
53062;SDS011;40529;52.172;10.548;2023-02-28T15:53:24;5.63;;;2.90;;
53062;SDS011;40529;52.172;10.548;2023-02-28T15:55:55;4.30;;;3.03;;
53062;SDS011;40529;52.172;10.548;2023-02-28T15:58:22;4.97;;;3.28;;
53062;SDS011;40529;52.172;10.548;2023-02-28T16:01:00;4.22;;;2.80;;
53062;SDS011;40529;52.172;10.548;2023-02-28T16:03:27;5.22;;;2.72;;
53062;SDS011;40529;52.172;10.548;2023-02-28T16:08:38;3.38;;;2.80;;
53062;SDS011;40529;52.172;10.548;2023-02-28T16:11:04;4.88;;;3.08;;
53062;SDS011;40529;52.172;10.548;2023-02-28T16:13:30;4.53;;;2.85;;
53062;SDS011;40529;52.172;10.548;2023-02-28T16:15:56;5.20;;;2.70;;
53062;SDS011;40529;52.172;10.548;2023-02-28T16:18:24;3.92;;;2.60;;
53062;SDS011;40529;52.172;10.548;2023-02-28T16:20:50;5.05;;;3.22;;
53062;SDS011;40529;52.172;10.548;2023-02-28T16:23:16;5.07;;;3.28;;
53062;SDS011;40529;52.172;10.548;2023-02-28T16:25:42;4.82;;;3.45;;
53062;SDS011;40529;52.172;10.548;2023-02-28T16:28:12;5.97;;;3.78;;
53062;SDS011;40529;52.172;10.548;2023-02-28T16:30:41;5.78;;;3.60;;
53062;SDS011;40529;52.172;10.548;2023-02-28T16:33:07;4.78;;;3.20;;
53062;SDS011;40529;52.172;10.548;2023-02-28T16:35:33;6.20;;;3.55;;
53062;SDS011;40529;52.172;10.548;2023-02-28T16:37:59;4.15;;;3.45;;
53062;SDS011;40529;52.172;10.548;2023-02-28T16:40:26;6.28;;;3.45;;
53062;SDS011;40529;52.172;10.548;2023-02-28T16:42:57;4.43;;;3.72;;
53062;SDS011;40529;52.172;10.548;2023-02-28T16:45:25;5.30;;;3.83;;
53062;SDS011;40529;52.172;10.548;2023-02-28T16:48:03;6.28;;;3.97;;
53062;SDS011;40529;52.172;10.548;2023-02-28T16:53:02;6.55;;;4.07;;
53062;SDS011;40529;52.172;10.548;2023-02-28T16:55:28;6.82;;;3.67;;
53062;SDS011;40529;52.172;10.548;2023-02-28T16:57:55;4.18;;;3.03;;
53062;SDS011;40529;52.172;10.548;2023-02-28T17:00:33;4.60;;;3.78;;
53062;SDS011;40529;52.172;10.548;2023-02-28T17:02:59;6.25;;;3.92;;
53062;SDS011;40529;52.172;10.548;2023-02-28T17:05:26;5.38;;;3.65;;